createdAt,value
2017-09-19T00:00:52.538Z,0
2017-09-19T00:01:53.176Z,0
2017-09-19T00:02:53.811Z,0
2017-09-19T00:03:54.449Z,0
2017-09-19T00:04:55.095Z,0
2017-09-19T00:05:56.021Z,0
2017-09-19T00:06:56.664Z,0
2017-09-19T00:07:57.296Z,0
2017-09-19T00:08:57.936Z,0
2017-09-19T00:09:58.574Z,0
2017-09-19T00:10:59.205Z,0
2017-09-19T00:11:59.847Z,0
2017-09-19T00:13:00.478Z,0
2017-09-19T00:14:01.316Z,0
2017-09-19T00:15:01.951Z,0
2017-09-19T00:16:02.585Z,0
2017-09-19T00:17:03.221Z,0
2017-09-19T00:18:03.854Z,0
2017-09-19T00:19:04.491Z,0
2017-09-19T00:20:05.125Z,0
2017-09-19T00:21:05.761Z,0
2017-09-19T00:22:06.396Z,0
2017-09-19T00:23:07.231Z,0
2017-09-19T00:24:07.872Z,0
2017-09-19T00:25:08.505Z,0
2017-09-19T00:26:09.137Z,0
2017-09-19T00:27:09.773Z,0
2017-09-19T00:28:10.407Z,0
2017-09-19T00:29:11.042Z,0
2017-09-19T00:30:11.675Z,0
2017-09-19T00:31:12.516Z,0
2017-09-19T00:32:13.149Z,0
2017-09-19T00:33:13.784Z,0
2017-09-19T00:34:14.430Z,0
2017-09-19T00:35:15.070Z,0
2017-09-19T00:36:15.710Z,0
2017-09-19T00:37:16.345Z,0
2017-09-19T00:38:16.987Z,0
2017-09-19T00:39:17.816Z,0
2017-09-19T00:40:18.457Z,0
2017-09-19T00:41:19.094Z,0
2017-09-19T00:42:19.730Z,0
2017-09-19T00:43:20.373Z,0
2017-09-19T00:44:21.063Z,0
2017-09-19T00:45:21.695Z,0
2017-09-19T00:46:22.329Z,0
2017-09-19T00:47:23.163Z,0
2017-09-19T00:48:23.810Z,0
2017-09-19T00:49:24.436Z,0
2017-09-19T00:50:25.067Z,0
2017-09-19T00:51:25.703Z,0
2017-09-19T00:52:26.339Z,0
2017-09-19T00:53:26.977Z,0
2017-09-19T00:54:27.611Z,0
2017-09-19T00:55:28.255Z,0
2017-09-19T00:56:29.245Z,0
2017-09-19T00:57:29.880Z,0
2017-09-19T00:58:30.513Z,0
2017-09-19T00:59:31.153Z,0
2017-09-19T01:00:31.790Z,0
2017-09-19T01:01:32.425Z,0
2017-09-19T01:02:33.058Z,0
2017-09-19T01:03:33.691Z,0
2017-09-19T01:04:34.633Z,0
2017-09-19T01:05:35.266Z,0
2017-09-19T01:06:35.900Z,0
2017-09-19T01:07:36.542Z,0
2017-09-19T01:08:37.178Z,0
2017-09-19T01:09:37.817Z,0
2017-09-19T01:10:38.449Z,0
2017-09-19T01:11:39.084Z,0
2017-09-19T01:12:39.869Z,0
2017-09-19T01:13:40.509Z,0
2017-09-19T01:14:41.141Z,0
2017-09-19T01:15:41.777Z,0
2017-09-19T01:16:42.418Z,0
2017-09-19T01:17:43.053Z,0
2017-09-19T01:18:43.692Z,0
2017-09-19T01:19:44.328Z,0
2017-09-19T01:20:45.166Z,0
2017-09-19T01:21:45.804Z,0
2017-09-19T01:22:46.435Z,0
2017-09-19T01:23:47.072Z,0
2017-09-19T01:24:47.714Z,0
2017-09-19T01:25:48.347Z,0
2017-09-19T01:26:48.980Z,0
2017-09-19T01:27:49.616Z,0
2017-09-19T01:28:50.451Z,0
2017-09-19T01:29:51.090Z,0
2017-09-19T01:30:51.723Z,0
2017-09-19T01:31:52.365Z,0
2017-09-19T01:32:53.002Z,0
2017-09-19T01:33:53.632Z,0
2017-09-19T01:34:54.267Z,0
2017-09-19T01:35:54.909Z,0
2017-09-19T01:36:55.540Z,0
2017-09-19T01:37:56.430Z,0
2017-09-19T01:38:57.074Z,0
2017-09-19T01:39:57.714Z,0
2017-09-19T01:40:58.349Z,0
2017-09-19T01:41:58.980Z,0
2017-09-19T01:42:59.626Z,0
2017-09-19T01:44:00.254Z,0
2017-09-19T01:45:00.892Z,0
2017-09-19T01:46:01.681Z,0
2017-09-19T01:47:02.319Z,0
2017-09-19T01:48:02.958Z,0
2017-09-19T01:49:03.588Z,0
2017-09-19T01:50:04.226Z,0
2017-09-19T01:51:04.861Z,0
2017-09-19T01:52:05.496Z,0
2017-09-19T01:53:06.136Z,0
2017-09-19T01:54:06.968Z,0
2017-09-19T01:55:07.605Z,0
2017-09-19T01:56:08.240Z,0
2017-09-19T01:57:08.875Z,0
2017-09-19T01:58:09.514Z,0
2017-09-19T01:59:10.148Z,0
2017-09-19T02:00:10.792Z,0
2017-09-19T02:01:11.433Z,0
2017-09-19T02:02:12.470Z,0
2017-09-19T02:03:13.105Z,0
2017-09-19T02:04:13.736Z,0
2017-09-19T02:05:14.376Z,0
2017-09-19T02:06:15.018Z,0
2017-09-19T02:07:15.649Z,0
2017-09-19T02:08:16.282Z,0
2017-09-19T02:09:16.917Z,0
2017-09-19T02:10:17.556Z,0
2017-09-19T02:11:18.388Z,0
2017-09-19T02:13:19.662Z,0
2017-09-19T02:14:20.351Z,0
2017-09-19T02:15:20.981Z,0
2017-09-19T02:16:21.621Z,0
2017-09-19T02:17:22.254Z,0
2017-09-19T02:18:22.888Z,0
2017-09-19T02:19:23.724Z,0
2017-09-19T02:20:24.366Z,0
2017-09-19T02:21:24.997Z,0
2017-09-19T02:22:25.641Z,0
2017-09-19T02:23:26.277Z,0
2017-09-19T02:24:26.906Z,0
2017-09-19T02:25:27.553Z,0
2017-09-19T02:26:28.186Z,0
2017-09-19T02:27:29.017Z,0
2017-09-19T02:28:29.654Z,0
2017-09-19T02:29:30.288Z,0
2017-09-19T02:30:30.928Z,0
2017-09-19T02:31:31.560Z,0
2017-09-19T02:32:32.195Z,0
2017-09-19T02:33:32.831Z,0
2017-09-19T02:34:33.472Z,0
2017-09-19T02:35:34.408Z,0
2017-09-19T02:36:35.039Z,0
2017-09-19T02:37:35.677Z,0
2017-09-19T02:38:36.307Z,0
2017-09-19T02:39:36.942Z,0
2017-09-19T02:40:37.584Z,0
2017-09-19T02:41:38.225Z,0
2017-09-19T02:42:38.864Z,0
2017-09-19T02:43:39.648Z,0
2017-09-19T02:44:40.291Z,0
2017-09-19T02:45:40.925Z,0
2017-09-19T02:46:41.555Z,0
2017-09-19T02:47:42.187Z,0
2017-09-19T02:48:42.828Z,0
2017-09-19T02:49:43.460Z,0
2017-09-19T02:50:44.147Z,0
2017-09-19T02:51:44.798Z,0
2017-09-19T02:52:45.620Z,0
2017-09-19T02:53:46.266Z,0
2017-09-19T02:54:46.897Z,0
2017-09-19T02:55:47.531Z,0
2017-09-19T02:56:48.174Z,0
2017-09-19T02:57:48.804Z,0
2017-09-19T02:58:49.438Z,0
2017-09-19T02:59:50.074Z,0
2017-09-19T03:00:50.909Z,0
2017-09-19T03:01:51.550Z,0
2017-09-19T03:02:52.182Z,0
2017-09-19T03:03:52.824Z,0
2017-09-19T03:04:53.465Z,0
2017-09-19T03:05:54.101Z,0
2017-09-19T03:06:54.738Z,0
2017-09-19T03:07:55.371Z,0
2017-09-19T03:08:56.158Z,0
2017-09-19T03:09:56.791Z,0
2017-09-19T03:10:57.426Z,0
2017-09-19T03:11:58.067Z,0
2017-09-19T03:12:58.700Z,0
2017-09-19T03:13:59.339Z,0
2017-09-19T03:14:59.974Z,0
2017-09-19T03:16:00.607Z,0
2017-09-19T03:17:01.447Z,0
2017-09-19T03:18:02.080Z,0
2017-09-19T03:19:02.711Z,0
2017-09-19T03:20:03.346Z,0
2017-09-19T03:21:03.981Z,0
2017-09-19T03:22:04.619Z,0
2017-09-19T03:23:05.254Z,0
2017-09-19T03:24:05.894Z,0
2017-09-19T03:25:06.531Z,0
2017-09-19T03:26:07.365Z,0
2017-09-19T03:27:08.004Z,0
2017-09-19T03:28:08.640Z,0
2017-09-19T03:29:09.280Z,0
2017-09-19T03:30:09.911Z,0
2017-09-19T03:31:10.545Z,0
2017-09-19T03:32:11.183Z,0
2017-09-19T03:33:11.819Z,0
2017-09-19T03:34:12.451Z,0
2017-09-19T03:35:13.086Z,0
2017-09-19T03:36:13.772Z,0
2017-09-19T03:37:14.408Z,0
2017-09-19T03:38:15.049Z,0
2017-09-19T03:39:15.684Z,0
2017-09-19T03:40:16.371Z,0
2017-09-19T03:41:17.001Z,0
2017-09-19T03:42:17.836Z,0
2017-09-19T03:43:18.476Z,0
2017-09-19T03:44:19.107Z,0
2017-09-19T03:45:19.740Z,0
2017-09-19T03:46:20.380Z,0
2017-09-19T03:47:21.022Z,0
2017-09-19T03:48:21.651Z,0
2017-09-19T03:49:22.291Z,0
2017-09-19T03:50:23.134Z,0
2017-09-19T03:51:23.774Z,0
2017-09-19T03:52:24.403Z,0
2017-09-19T03:53:25.038Z,0
2017-09-19T03:54:25.673Z,0
2017-09-19T03:55:26.311Z,0
2017-09-19T03:56:26.950Z,0
2017-09-19T03:57:27.579Z,0
2017-09-19T03:58:28.233Z,0
2017-09-19T03:59:29.154Z,0
2017-09-19T04:00:29.787Z,0
2017-09-19T04:01:30.423Z,0
2017-09-19T04:02:31.060Z,0
2017-09-19T04:03:31.693Z,0
2017-09-19T04:04:32.328Z,0
2017-09-19T04:05:32.962Z,0
2017-09-19T04:06:33.603Z,0
2017-09-19T04:07:34.433Z,0
2017-09-19T04:08:35.078Z,0
2017-09-19T04:09:35.717Z,0
2017-09-19T04:10:36.350Z,0
2017-09-19T04:11:36.988Z,0
2017-09-19T04:12:37.625Z,0
2017-09-19T04:13:38.265Z,0
2017-09-19T04:14:38.892Z,0
2017-09-19T04:15:39.734Z,0
2017-09-19T04:16:40.365Z,0
2017-09-19T04:17:41.004Z,0
2017-09-19T04:18:41.641Z,0
2017-09-19T04:19:42.279Z,0
2017-09-19T04:20:42.912Z,0
2017-09-19T04:21:43.545Z,0
2017-09-19T04:22:44.180Z,0
2017-09-19T04:23:45.013Z,0
2017-09-19T04:24:45.650Z,0
2017-09-19T04:25:46.284Z,0
2017-09-19T04:26:46.925Z,0
2017-09-19T04:27:47.557Z,0
2017-09-19T04:28:48.192Z,0
2017-09-19T04:29:48.827Z,0
2017-09-19T04:30:49.467Z,0
2017-09-19T04:31:50.309Z,0
2017-09-19T04:32:50.941Z,0
2017-09-19T04:33:51.590Z,0
2017-09-19T04:34:52.211Z,0
2017-09-19T04:35:52.844Z,0
2017-09-19T04:36:53.483Z,0
2017-09-19T04:37:54.113Z,0
2017-09-19T04:38:54.747Z,0
2017-09-19T04:39:55.384Z,0
2017-09-19T04:40:56.220Z,0
2017-09-19T04:41:56.854Z,0
2017-09-19T04:42:57.489Z,0
2017-09-19T04:43:58.125Z,0
2017-09-19T04:44:58.816Z,0
2017-09-19T04:45:59.448Z,0
2017-09-19T04:47:00.084Z,0
2017-09-19T04:48:00.724Z,0
2017-09-19T04:49:01.574Z,0
2017-09-19T04:50:02.193Z,0
2017-09-19T04:51:02.831Z,0
2017-09-19T04:52:03.476Z,0
2017-09-19T04:53:04.113Z,0
2017-09-19T04:54:04.750Z,0
2017-09-19T04:55:05.379Z,0
2017-09-19T04:56:06.014Z,0
2017-09-19T04:57:06.853Z,0
2017-09-19T04:58:07.491Z,0
2017-09-19T04:59:08.122Z,0
2017-09-19T05:00:08.761Z,0
2017-09-19T05:01:09.399Z,0
2017-09-19T05:02:10.035Z,0
2017-09-19T05:03:10.676Z,0
2017-09-19T05:04:11.305Z,0
2017-09-19T05:05:12.140Z,0
2017-09-19T05:06:12.777Z,0
2017-09-19T05:07:13.414Z,0
2017-09-19T05:08:14.100Z,0
2017-09-19T05:09:14.734Z,0
2017-09-19T05:10:15.368Z,0
2017-09-19T05:11:16.003Z,0
2017-09-19T05:12:16.641Z,0
2017-09-19T05:13:17.279Z,0
2017-09-19T05:14:18.110Z,0
2017-09-19T05:15:18.748Z,0
2017-09-19T05:16:19.387Z,0
2017-09-19T05:17:20.019Z,0
2017-09-19T05:18:20.659Z,0
2017-09-19T05:19:21.296Z,0
2017-09-19T05:20:21.927Z,0
2017-09-19T05:21:22.559Z,0
2017-09-19T05:22:23.344Z,0
2017-09-19T05:23:23.985Z,0
2017-09-19T05:24:24.618Z,0
2017-09-19T05:25:25.251Z,0
2017-09-19T05:26:25.886Z,0
2017-09-19T05:27:26.521Z,0
2017-09-19T05:28:27.156Z,0
2017-09-19T05:29:27.789Z,0
2017-09-19T05:30:28.824Z,0
2017-09-19T05:31:29.458Z,0
2017-09-19T05:32:30.091Z,0
2017-09-19T05:33:30.727Z,0
2017-09-19T05:34:31.317Z,0
2017-09-19T05:35:31.954Z,0
2017-09-19T05:36:32.591Z,0
2017-09-19T05:37:33.230Z,0
2017-09-19T05:38:34.016Z,0
2017-09-19T05:39:34.651Z,0
2017-09-19T05:40:35.286Z,0
2017-09-19T05:41:35.919Z,0
2017-09-19T05:42:36.559Z,0
2017-09-19T05:43:37.198Z,0
2017-09-19T05:44:37.832Z,0
2017-09-19T05:45:38.471Z,0
2017-09-19T05:46:39.358Z,0
2017-09-19T05:47:39.991Z,0
2017-09-19T05:48:40.628Z,0
2017-09-19T05:49:41.262Z,0
2017-09-19T05:50:41.903Z,0
2017-09-19T05:51:42.533Z,0
2017-09-19T05:52:43.167Z,0
2017-09-19T05:53:43.812Z,0
2017-09-19T05:54:44.446Z,0
2017-09-19T05:55:45.334Z,0
2017-09-19T05:56:45.972Z,0
2017-09-19T05:57:46.612Z,0
2017-09-19T05:58:47.246Z,0
2017-09-19T05:59:47.880Z,0
2017-09-19T06:00:48.513Z,0
2017-09-19T06:01:49.153Z,0
2017-09-19T06:02:49.791Z,0
2017-09-19T06:03:50.572Z,0
2017-09-19T06:04:51.205Z,0
2017-09-19T06:05:51.846Z,0
2017-09-19T06:06:52.481Z,0
2017-09-19T06:07:53.120Z,0
2017-09-19T06:08:53.755Z,0
2017-09-19T06:09:54.388Z,0
2017-09-19T06:10:55.022Z,0
2017-09-19T06:11:55.809Z,0
2017-09-19T06:12:56.443Z,0
2017-09-19T06:13:57.029Z,0
2017-09-19T06:14:57.664Z,0
2017-09-19T06:15:58.299Z,0
2017-09-19T06:16:58.937Z,0
2017-09-19T06:17:59.580Z,0
2017-09-19T06:19:00.215Z,0
2017-09-19T06:20:01.052Z,0
2017-09-19T06:21:01.691Z,0
2017-09-19T06:22:02.327Z,0
2017-09-19T06:23:02.960Z,0
2017-09-19T06:24:03.592Z,0
2017-09-19T06:25:04.229Z,0
2017-09-19T06:26:04.861Z,0
2017-09-19T06:27:05.502Z,0
2017-09-19T06:28:06.133Z,0
2017-09-19T06:29:06.918Z,0
2017-09-19T06:30:07.554Z,0
2017-09-19T06:31:08.194Z,0
2017-09-19T06:32:08.832Z,0
2017-09-19T06:33:09.464Z,0
2017-09-19T06:34:10.098Z,0
2017-09-19T06:35:10.731Z,0
2017-09-19T06:36:11.373Z,0
2017-09-19T06:37:12.206Z,0
2017-09-19T06:38:12.840Z,0
2017-09-19T06:39:13.477Z,0
2017-09-19T06:40:14.110Z,0
2017-09-19T06:41:14.747Z,0
2017-09-19T06:42:15.376Z,0
2017-09-19T06:43:16.019Z,0
2017-09-19T06:44:16.654Z,0
2017-09-19T06:45:17.536Z,0
2017-09-19T06:46:18.177Z,0
2017-09-19T06:47:18.814Z,0
2017-09-19T06:48:19.406Z,0
2017-09-19T06:49:20.035Z,0
2017-09-19T06:50:20.668Z,0
2017-09-19T06:51:21.305Z,4
2017-09-19T06:52:21.940Z,4
2017-09-19T06:53:22.786Z,4
2017-09-19T06:54:23.411Z,4
2017-09-19T06:55:24.048Z,4
2017-09-19T06:56:24.683Z,0
2017-09-19T06:57:25.322Z,0
2017-09-19T06:58:25.954Z,0
2017-09-19T06:59:26.589Z,0
2017-09-19T07:00:27.227Z,0
2017-09-19T07:01:28.068Z,0
2017-09-19T07:02:28.701Z,0
2017-09-19T07:03:29.338Z,0
2017-09-19T07:04:29.975Z,4
2017-09-19T07:05:30.609Z,4
2017-09-19T07:06:31.242Z,4
2017-09-19T07:07:31.874Z,4
2017-09-19T07:08:32.519Z,4
2017-09-19T07:09:33.154Z,4
2017-09-19T07:10:33.939Z,4
2017-09-19T07:11:34.584Z,4
2017-09-19T07:12:35.216Z,0
2017-09-19T07:13:35.847Z,0
2017-09-19T07:14:36.481Z,0
2017-09-19T07:15:37.126Z,0
2017-09-19T07:16:37.758Z,0
2017-09-19T07:17:38.394Z,0
2017-09-19T07:18:39.230Z,0
2017-09-19T07:19:39.861Z,0
2017-09-19T07:20:40.502Z,4
2017-09-19T07:21:41.137Z,0
2017-09-19T07:22:41.773Z,4
2017-09-19T07:23:42.411Z,4
2017-09-19T07:24:43.049Z,4
2017-09-19T07:25:43.678Z,4
2017-09-19T07:26:44.475Z,4
2017-09-19T07:27:45.106Z,8
2017-09-19T07:28:45.738Z,4
2017-09-19T07:29:46.372Z,4
2017-09-19T07:30:47.010Z,4
2017-09-19T07:31:47.651Z,4
2017-09-19T07:32:48.283Z,4
2017-09-19T07:34:32.416Z,4
2017-09-19T07:35:33.257Z,8
2017-09-19T07:36:33.894Z,4
2017-09-19T07:37:34.526Z,4
2017-09-19T07:38:35.170Z,8
2017-09-19T07:39:35.853Z,8
2017-09-19T07:40:36.492Z,4
2017-09-19T07:41:37.123Z,8
2017-09-19T07:42:37.757Z,4
2017-09-19T07:43:38.598Z,8
2017-09-19T07:44:39.229Z,8
2017-09-19T07:45:39.870Z,8
2017-09-19T07:46:40.506Z,8
2017-09-19T07:47:41.141Z,8
2017-09-19T07:48:41.778Z,8
2017-09-19T07:49:42.415Z,8
2017-09-19T07:50:43.051Z,4
2017-09-19T07:51:43.986Z,4
2017-09-19T07:52:44.626Z,4
2017-09-19T07:53:45.262Z,4
2017-09-19T07:54:45.894Z,8
2017-09-19T07:55:46.527Z,8
2017-09-19T07:56:47.162Z,8
2017-09-19T07:57:47.806Z,8
2017-09-19T07:58:48.440Z,4
2017-09-19T07:59:49.278Z,8
2017-09-19T08:00:49.917Z,8
2017-09-19T08:01:50.552Z,8
2017-09-19T08:02:51.182Z,8
2017-09-19T08:03:51.817Z,4
2017-09-19T08:04:52.453Z,8
2017-09-19T08:05:53.093Z,8
2017-09-19T08:06:53.725Z,8
2017-09-19T08:07:54.563Z,8
2017-09-19T08:08:55.195Z,8
2017-09-19T08:09:55.832Z,8
2017-09-19T08:10:56.465Z,8
2017-09-19T08:11:57.107Z,8
2017-09-19T08:12:57.736Z,8
2017-09-19T08:13:58.373Z,8
2017-09-19T08:14:59.003Z,8
2017-09-19T08:15:59.651Z,8
2017-09-19T08:17:00.477Z,8
2017-09-19T08:18:01.119Z,8
2017-09-19T08:19:01.756Z,8
2017-09-19T08:20:02.400Z,8
2017-09-19T08:21:03.094Z,8
2017-09-19T08:22:03.779Z,12
2017-09-19T08:23:04.419Z,12
2017-09-19T08:24:05.051Z,8
2017-09-19T08:25:05.835Z,8
2017-09-19T08:26:06.474Z,8
2017-09-19T08:27:07.110Z,8
2017-09-19T08:28:07.745Z,8
2017-09-19T08:29:08.377Z,8
2017-09-19T08:30:09.017Z,8
2017-09-19T08:31:09.654Z,8
2017-09-19T08:32:10.285Z,8
2017-09-19T08:33:11.227Z,8
2017-09-19T08:34:11.859Z,8
2017-09-19T08:35:12.492Z,8
2017-09-19T08:36:13.129Z,8
2017-09-19T08:37:13.763Z,12
2017-09-19T08:38:14.406Z,12
2017-09-19T08:39:15.036Z,12
2017-09-19T08:40:15.688Z,12
2017-09-19T08:41:16.482Z,8
2017-09-19T08:42:17.156Z,12
2017-09-19T08:43:17.792Z,12
2017-09-19T08:44:18.425Z,8
2017-09-19T08:45:19.065Z,12
2017-09-19T08:46:19.704Z,8
2017-09-19T08:47:20.338Z,12
2017-09-19T08:48:20.977Z,12
2017-09-19T08:49:21.611Z,12
2017-09-19T08:50:22.551Z,16
2017-09-19T08:51:23.191Z,12
2017-09-19T08:52:23.834Z,12
2017-09-19T08:53:24.460Z,16
2017-09-19T08:54:25.150Z,12
2017-09-19T08:55:25.789Z,16
2017-09-19T08:56:26.421Z,16
2017-09-19T08:57:27.057Z,12
2017-09-19T08:58:27.898Z,12
2017-09-19T08:59:28.531Z,12
2017-09-19T09:00:29.167Z,12
2017-09-19T09:01:29.803Z,12
2017-09-19T09:02:30.442Z,12
2017-09-19T09:03:31.085Z,16
2017-09-19T09:04:31.712Z,12
2017-09-19T09:05:32.361Z,16
2017-09-19T09:06:33.154Z,12
2017-09-19T09:07:33.787Z,16
2017-09-19T09:08:34.432Z,12
2017-09-19T09:09:35.061Z,16
2017-09-19T09:10:35.706Z,16
2017-09-19T09:11:36.336Z,16
2017-09-19T09:12:36.973Z,16
2017-09-19T09:13:37.608Z,16
2017-09-19T09:14:38.551Z,12
2017-09-19T09:15:39.181Z,16
2017-09-19T09:16:39.823Z,16
2017-09-19T09:17:40.455Z,12
2017-09-19T09:18:41.099Z,16
2017-09-19T09:19:41.780Z,12
2017-09-19T09:20:42.429Z,16
2017-09-19T09:21:43.058Z,16
2017-09-19T09:22:43.893Z,12
2017-09-19T09:23:44.541Z,12
2017-09-19T09:24:45.226Z,12
2017-09-19T09:25:45.923Z,16
2017-09-19T09:26:46.553Z,16
2017-09-19T09:27:47.195Z,16
2017-09-19T09:28:47.832Z,16
2017-09-19T09:29:48.471Z,16
2017-09-19T09:30:49.109Z,16
2017-09-19T09:31:49.953Z,12
2017-09-19T09:32:50.651Z,16
2017-09-19T09:33:51.281Z,16
2017-09-19T09:34:51.923Z,16
2017-09-19T09:35:52.558Z,16
2017-09-19T09:36:53.189Z,12
2017-09-19T09:37:53.826Z,12
2017-09-19T09:38:54.465Z,12
2017-09-19T09:39:55.298Z,12
2017-09-19T09:40:55.940Z,12
2017-09-19T09:41:56.572Z,12
2017-09-19T09:42:57.210Z,12
2017-09-19T09:43:57.849Z,12
2017-09-19T09:44:58.485Z,16
2017-09-19T09:45:59.130Z,12
2017-09-19T09:46:59.768Z,12
2017-09-19T09:48:00.546Z,16
2017-09-19T09:49:01.187Z,16
2017-09-19T09:50:01.820Z,16
2017-09-19T09:51:02.455Z,16
2017-09-19T09:52:03.089Z,16
2017-09-19T09:53:03.726Z,16
2017-09-19T09:54:04.361Z,16
2017-09-19T09:55:05.002Z,16
2017-09-19T09:56:05.885Z,16
2017-09-19T09:57:06.522Z,12
2017-09-19T09:58:07.159Z,16
2017-09-19T09:59:07.792Z,12
2017-09-19T10:00:08.383Z,16
2017-09-19T10:01:09.017Z,16
2017-09-19T10:02:09.653Z,16
2017-09-19T10:03:10.289Z,16
2017-09-19T10:04:10.923Z,20
2017-09-19T10:05:11.861Z,16
2017-09-19T10:06:12.495Z,16
2017-09-19T10:07:13.148Z,16
2017-09-19T10:08:13.792Z,16
2017-09-19T10:09:14.422Z,16
2017-09-19T10:10:15.052Z,16
2017-09-19T10:11:15.697Z,16
2017-09-19T10:12:16.338Z,16
2017-09-19T10:13:17.273Z,16
2017-09-19T10:14:17.906Z,16
2017-09-19T10:15:18.547Z,16
2017-09-19T10:16:19.180Z,20
2017-09-19T10:17:19.821Z,16
2017-09-19T10:18:20.454Z,16
2017-09-19T10:19:21.045Z,16
2017-09-19T10:20:22.229Z,16
2017-09-19T10:21:23.064Z,20
2017-09-19T10:22:23.701Z,16
2017-09-19T10:23:24.335Z,20
2017-09-19T10:24:24.972Z,20
2017-09-19T10:25:25.616Z,20
2017-09-19T10:26:26.256Z,20
2017-09-19T10:27:26.890Z,20
2017-09-19T10:28:27.524Z,24
2017-09-19T10:29:28.365Z,24
2017-09-19T10:30:29.000Z,24
2017-09-19T10:31:29.655Z,24
2017-09-19T10:32:30.290Z,20
2017-09-19T10:33:30.924Z,24
2017-09-19T10:34:31.564Z,24
2017-09-19T10:35:32.206Z,20
2017-09-19T10:36:32.847Z,20
2017-09-19T10:37:33.676Z,20
2017-09-19T10:38:34.318Z,20
2017-09-19T10:39:34.949Z,24
2017-09-19T10:40:35.590Z,24
2017-09-19T10:41:36.230Z,24
2017-09-19T10:42:36.870Z,24
2017-09-19T10:43:37.502Z,24
2017-09-19T10:44:38.135Z,24
2017-09-19T10:45:38.777Z,24
2017-09-19T10:46:39.567Z,28
2017-09-19T10:47:40.201Z,28
2017-09-19T10:48:40.846Z,24
2017-09-19T10:49:41.487Z,28
2017-09-19T10:50:42.124Z,28
2017-09-19T10:51:42.758Z,24
2017-09-19T10:52:43.393Z,28
2017-09-19T10:53:44.033Z,24
2017-09-19T10:54:44.872Z,24
2017-09-19T10:55:45.504Z,28
2017-09-19T10:56:46.140Z,28
2017-09-19T10:57:46.776Z,28
2017-09-19T10:58:47.416Z,28
2017-09-19T10:59:48.050Z,28
2017-09-19T11:00:48.685Z,28
2017-09-19T11:01:49.325Z,24
2017-09-19T11:02:50.166Z,28
2017-09-19T11:03:50.797Z,32
2017-09-19T11:04:51.434Z,32
2017-09-19T11:05:52.071Z,28
2017-09-19T11:06:52.707Z,36
2017-09-19T11:07:53.347Z,32
2017-09-19T11:08:53.983Z,28
2017-09-19T11:09:54.623Z,32
2017-09-19T11:10:55.406Z,32
2017-09-19T11:11:56.045Z,32
2017-09-19T11:12:56.682Z,28
2017-09-19T11:13:57.325Z,32
2017-09-19T11:14:57.959Z,28
2017-09-19T11:15:58.590Z,32
2017-09-19T11:16:59.232Z,32
2017-09-19T11:17:59.864Z,28
2017-09-19T11:19:00.501Z,28
2017-09-19T11:20:01.345Z,28
2017-09-19T11:21:01.980Z,28
2017-09-19T11:22:02.614Z,32
2017-09-19T11:23:03.254Z,32
2017-09-19T11:24:03.886Z,28
2017-09-19T11:25:04.524Z,32
2017-09-19T11:26:05.157Z,28
2017-09-19T11:27:05.795Z,28
2017-09-19T11:28:06.635Z,28
2017-09-19T11:29:07.271Z,32
2017-09-19T11:30:07.907Z,32
2017-09-19T11:31:08.546Z,32
2017-09-19T11:32:09.185Z,28
2017-09-19T11:33:09.835Z,32
2017-09-19T11:34:10.483Z,32
2017-09-19T11:35:11.132Z,32
2017-09-19T11:36:12.037Z,32
2017-09-19T11:37:12.679Z,32
2017-09-19T11:38:13.335Z,28
2017-09-19T11:39:13.974Z,28
2017-09-19T11:40:14.623Z,28
2017-09-19T11:41:15.272Z,32
2017-09-19T11:42:15.916Z,28
2017-09-19T11:43:16.568Z,28
2017-09-19T11:44:17.461Z,28
2017-09-19T11:45:18.110Z,32
2017-09-19T11:46:18.756Z,36
2017-09-19T11:47:19.402Z,36
2017-09-19T11:48:20.048Z,32
2017-09-19T11:49:20.699Z,36
2017-09-19T11:50:21.342Z,32
2017-09-19T11:51:21.986Z,36
2017-09-19T11:52:22.832Z,36
2017-09-19T11:53:23.482Z,32
2017-09-19T11:54:24.128Z,36
2017-09-19T11:55:24.782Z,36
2017-09-19T11:56:25.427Z,36
2017-09-19T11:57:26.073Z,32
2017-09-19T11:58:26.718Z,36
2017-09-19T11:59:27.363Z,40
2017-09-19T12:00:28.010Z,40
2017-09-19T12:01:28.857Z,40
2017-09-19T12:02:29.508Z,36
2017-09-19T12:03:30.153Z,36
2017-09-19T12:04:30.797Z,36
2017-09-19T12:05:31.454Z,40
2017-09-19T12:06:32.106Z,36
2017-09-19T12:07:32.759Z,36
2017-09-19T12:08:33.405Z,36
2017-09-19T12:09:34.209Z,36
2017-09-19T12:10:34.851Z,32
2017-09-19T12:11:35.503Z,32
2017-09-19T12:12:36.151Z,32
2017-09-19T12:13:36.800Z,36
2017-09-19T12:14:37.448Z,32
2017-09-19T12:15:38.097Z,28
2017-09-19T12:16:38.740Z,36
2017-09-19T12:17:39.737Z,28
2017-09-19T12:18:40.385Z,28
2017-09-19T12:19:41.034Z,32
2017-09-19T12:20:41.686Z,32
2017-09-19T12:21:42.331Z,28
2017-09-19T12:22:42.978Z,32
2017-09-19T12:23:43.626Z,36
2017-09-19T12:24:44.341Z,32
2017-09-19T12:25:45.135Z,32
2017-09-19T12:26:45.788Z,32
2017-09-19T12:27:46.435Z,36
2017-09-19T12:28:47.080Z,32
2017-09-19T12:29:47.727Z,36
2017-09-19T12:30:48.379Z,36
2017-09-19T12:31:49.029Z,36
2017-09-19T12:32:49.674Z,36
2017-09-19T12:33:50.320Z,32
2017-09-19T12:34:51.164Z,36
2017-09-19T12:35:51.826Z,36
2017-09-19T12:36:52.463Z,36
2017-09-19T12:37:53.109Z,36
2017-09-19T12:38:53.763Z,32
2017-09-19T12:39:54.412Z,32
2017-09-19T12:40:55.062Z,36
2017-09-19T12:41:55.704Z,36
2017-09-19T12:42:56.601Z,32
2017-09-19T12:43:57.249Z,28
2017-09-19T12:44:57.901Z,32
2017-09-19T12:45:58.544Z,32
2017-09-19T12:46:59.190Z,32
2017-09-19T12:47:59.843Z,32
2017-09-19T12:49:00.491Z,32
2017-09-19T12:50:01.141Z,32
2017-09-19T12:51:01.990Z,36
2017-09-19T12:52:02.639Z,36
2017-09-19T12:53:03.286Z,36
2017-09-19T12:54:03.929Z,36
2017-09-19T12:55:04.580Z,32
2017-09-19T12:56:05.228Z,32
2017-09-19T12:57:05.873Z,28
2017-09-19T12:58:06.519Z,28
2017-09-19T12:59:07.365Z,36
2017-09-19T13:00:08.014Z,36
2017-09-19T13:01:08.662Z,36
2017-09-19T13:02:09.308Z,32
2017-09-19T13:03:09.961Z,32
2017-09-19T13:04:10.608Z,40
2017-09-19T13:05:11.257Z,32
2017-09-19T13:06:11.898Z,32
2017-09-19T13:07:12.761Z,36
2017-09-19T13:08:13.405Z,32
2017-09-19T13:09:14.056Z,32
2017-09-19T13:10:14.712Z,32
2017-09-19T13:11:15.360Z,44
2017-09-19T13:12:16.009Z,40
2017-09-19T13:13:16.654Z,36
2017-09-19T13:14:17.313Z,36
2017-09-19T13:15:17.952Z,36
2017-09-19T13:16:18.900Z,36
2017-09-19T13:17:19.552Z,40
2017-09-19T13:18:20.201Z,36
2017-09-19T13:19:20.853Z,32
2017-09-19T13:20:21.494Z,32
2017-09-19T13:21:22.143Z,36
2017-09-19T13:22:22.790Z,32
2017-09-19T13:23:23.436Z,36
2017-09-19T13:24:24.289Z,36
2017-09-19T13:25:24.932Z,32
2017-09-19T13:26:25.580Z,32
2017-09-19T13:27:26.229Z,32
2017-09-19T13:28:26.876Z,36
2017-09-19T13:29:27.527Z,40
2017-09-19T13:30:28.173Z,40
2017-09-19T13:31:28.830Z,36
2017-09-19T13:32:29.630Z,36
2017-09-19T13:33:30.277Z,36
2017-09-19T13:34:30.927Z,40
2017-09-19T13:35:31.571Z,40
2017-09-19T13:36:32.224Z,36
2017-09-19T13:37:32.874Z,36
2017-09-19T13:38:33.519Z,36
2017-09-19T13:39:34.165Z,36
2017-09-19T13:40:35.323Z,36
2017-09-19T13:41:35.971Z,32
2017-09-19T13:42:36.616Z,32
2017-09-19T13:43:37.266Z,36
2017-09-19T13:44:37.911Z,36
2017-09-19T13:45:38.563Z,36
2017-09-19T13:46:39.205Z,40
2017-09-19T13:47:39.860Z,44
2017-09-19T13:48:40.500Z,36
2017-09-19T13:49:41.329Z,36
2017-09-19T13:50:41.897Z,28
2017-09-19T13:51:42.549Z,32
2017-09-19T13:52:43.191Z,40
2017-09-19T13:53:43.852Z,40
2017-09-19T13:54:44.495Z,32
2017-09-19T13:55:45.138Z,32
2017-09-19T13:56:45.796Z,40
2017-09-19T13:57:46.642Z,36
2017-09-19T13:58:47.285Z,32
2017-09-19T13:59:47.932Z,32
2017-09-19T14:00:48.580Z,36
2017-09-19T14:01:49.233Z,40
2017-09-19T14:02:49.878Z,32
2017-09-19T14:03:50.525Z,36
2017-09-19T14:04:51.173Z,32
2017-09-19T14:05:51.975Z,32
2017-09-19T14:06:52.626Z,32
2017-09-19T14:07:53.267Z,32
2017-09-19T14:08:53.916Z,28
2017-09-19T14:09:54.560Z,24
2017-09-19T14:10:55.206Z,24
2017-09-19T14:11:55.858Z,24
2017-09-19T14:12:56.516Z,20
2017-09-19T14:13:57.360Z,20
2017-09-19T14:14:58.004Z,20
2017-09-19T14:15:58.657Z,20
2017-09-19T14:16:59.303Z,24
2017-09-19T14:17:59.957Z,20
2017-09-19T14:19:00.595Z,24
2017-09-19T14:20:01.250Z,24
2017-09-19T14:21:01.892Z,24
2017-09-19T14:22:02.712Z,20
2017-09-19T14:23:03.352Z,24
2017-09-19T14:24:04.033Z,20
2017-09-19T14:25:04.650Z,20
2017-09-19T14:26:05.295Z,20
2017-09-19T14:27:05.944Z,16
2017-09-19T14:28:06.593Z,20
2017-09-19T14:29:07.245Z,20
2017-09-19T14:30:07.883Z,16
2017-09-19T14:31:08.880Z,20
2017-09-19T14:32:09.527Z,20
2017-09-19T14:33:10.240Z,16
2017-09-19T14:34:10.884Z,20
2017-09-19T14:35:11.534Z,16
2017-09-19T14:36:12.189Z,16
2017-09-19T14:37:12.839Z,16
2017-09-19T14:38:13.485Z,24
2017-09-19T14:39:14.328Z,20
2017-09-19T14:40:14.980Z,16
2017-09-19T14:41:15.631Z,20
2017-09-19T14:42:16.272Z,20
2017-09-19T14:43:16.926Z,16
2017-09-19T14:44:17.572Z,16
2017-09-19T14:45:18.222Z,20